Terminal Aerodrome Forecast
Issued by NWS La Crosse, WI

Home | Current Version | Previous Version | Text Only | Print | Product List | Glossary On
Versions: 1 2 3 4 5 6 7 8 9 10 11 12 13 14 15 16 17 18 19 20 21 22 23 24 25 26 27 28 29 30 31 32 33 34 35 36 37
000
FTUS43 KARX 260527
TAFLSE
TAF
KLSE 260527Z 2606/2706 VRB03KT P6SM BKN100
     FM260700 15005KT P6SM BKN023
     FM261200 15007KT 4SM -SN OVC010
     FM261300 15007KT 1 1/2SM -SN BR BKN007
     FM261600 17009KT 5SM -FZDZ BR OVC007
     FM261900 20007KT 5SM -DZ BR OVC010
     FM262300 30007KT 6SM BR OVC015=

USA.gov is the U.S. government's official web portal to all federal, state and local government web resources and services.